Time;durP1;ratioP1;P1;durP2;ratioP2;P2;SDS_P1;SDS_P2;PMS_P1;PMS_P2;Temp;Humidity;BMP_temperature;BMP_pressure;BME280_temperature;BME280_humidity;BME280_pressure;Samples;Min_cycle;Max_cycle;Signal;HPM_P1;HPM_P2
2022/09/03 00:01:19;;;;;;;0.40;0.40;;;11.90;99.90;;;;;;5064659;28;20182;-70
2022/09/03 00:03:56;;;;;;;0.93;0.60;;;11.90;99.90;;;;;;5054786;28;20266;-70
2022/09/03 00:06:37;;;;;;;2.17;0.80;;;12.00;99.90;;;;;;5080821;28;20184;-70
2022/09/03 00:09:22;;;;;;;0.93;0.70;;;12.00;99.90;;;;;;5094105;28;20333;-70
2022/09/03 00:12:02;;;;;;;0.57;0.50;;;12.10;99.90;;;;;;5082758;28;20550;-71
2022/09/03 00:14:42;;;;;;;1.33;0.70;;;12.20;99.90;;;;;;5094966;28;20185;-70
2022/09/03 00:17:16;;;;;;;1.27;0.83;;;12.20;99.90;;;;;;5074035;28;20186;-69
2022/09/03 00:19:53;;;;;;;1.20;0.80;;;12.30;99.90;;;;;;5090768;28;20185;-69
2022/09/03 00:22:29;;;;;;;2.80;0.90;;;12.20;99.90;;;;;;5094968;28;20175;-69
2022/09/03 00:25:01;;;;;;;2.10;1.00;;;12.20;99.90;;;;;;5094718;28;20183;-69
2022/09/03 00:27:31;;;;;;;8.67;0.80;;;12.20;99.90;;;;;;5094528;28;20317;-68
2022/09/03 00:30:05;;;;;;;4.20;0.80;;;12.30;99.90;;;;;;5094534;28;20172;-68
2022/09/03 00:33:09;;;;;;;0.80;0.70;;;12.30;99.90;;;;;;5094708;28;20173;-68
2022/09/03 00:36:03;;;;;;;1.67;0.63;;;12.20;99.90;;;;;;5090852;28;20653;-68
2022/09/03 00:38:32;;;;;;;1.30;0.70;;;12.10;99.90;;;;;;5094258;28;20219;-69
2022/09/03 00:41:15;;;;;;;3.00;1.10;;;12.00;99.90;;;;;;5094317;28;20643;-70
2022/09/03 00:44:02;;;;;;;3.03;1.33;;;12.00;99.90;;;;;;5094671;28;20188;-68
2022/09/03 00:46:48;;;;;;;1.47;0.80;;;12.10;99.90;;;;;;5094828;28;20203;-70
2022/09/03 00:49:43;;;;;;;2.97;0.90;;;12.00;99.90;;;;;;5094180;28;20250;-70
2022/09/03 00:52:33;;;;;;;1.03;0.80;;;11.90;99.90;;;;;;5094350;28;20171;-68
2022/09/03 00:55:33;;;;;;;3.37;0.90;;;12.00;99.90;;;;;;5094520;28;20178;-71
2022/09/03 00:58:13;;;;;;;1.63;0.90;;;12.20;99.90;;;;;;5092790;28;20247;-69
2022/09/03 01:00:44;;;;;;;2.10;0.90;;;12.20;99.90;;;;;;5094446;28;20228;-71
2022/09/03 01:03:39;;;;;;;2.10;0.70;;;12.10;99.90;;;;;;5094227;28;20186;-69
2022/09/03 01:06:18;;;;;;;1.80;0.67;;;12.10;99.90;;;;;;5094039;28;20176;-69
2022/09/03 01:08:58;;;;;;;4.13;0.83;;;12.20;99.90;;;;;;5094084;28;20187;-69
2022/09/03 01:11:45;;;;;;;1.17;0.67;;;12.30;99.90;;;;;;5094187;28;20660;-69
2022/09/03 01:14:31;;;;;;;3.83;0.90;;;12.40;99.90;;;;;;5094368;28;20168;-70
2022/09/03 01:17:11;;;;;;;2.30;1.00;;;12.50;99.90;;;;;;5094060;28;20173;-69
2022/09/03 01:20:14;;;;;;;2.63;0.80;;;12.50;99.90;;;;;;5094007;28;20264;-69
2022/09/03 01:23:15;;;;;;;2.37;0.90;;;12.60;99.90;;;;;;5093684;28;20172;-68
2022/09/03 01:26:01;;;;;;;3.30;1.20;;;12.60;99.90;;;;;;5093670;28;20171;-69
2022/09/03 01:28:39;;;;;;;1.53;0.80;;;12.80;99.90;;;;;;5093309;28;20638;-69
2022/09/03 01:31:41;;;;;;;5.47;1.33;;;13.10;99.90;;;;;;5093497;28;20647;-69
2022/09/03 01:34:47;;;;;;;3.57;1.10;;;13.60;99.90;;;;;;5093889;28;20188;-69
2022/09/03 01:37:29;;;;;;;5.47;1.37;;;13.80;99.90;;;;;;5094056;28;20226;-69
2022/09/03 01:40:09;;;;;;;4.40;1.13;;;13.70;99.90;;;;;;5093728;28;20591;-69
2022/09/03 01:43:04;;;;;;;7.53;1.03;;;13.90;99.90;;;;;;5093216;28;20663;-69
2022/09/03 01:45:58;;;;;;;5.77;1.10;;;14.20;99.90;;;;;;5093583;28;20265;-68
2022/09/03 01:48:53;;;;;;;3.30;0.93;;;14.40;99.90;;;;;;5093362;28;20196;-69
2022/09/03 01:51:27;;;;;;;7.03;1.53;;;14.40;99.90;;;;;;5093588;28;20179;-73
2022/09/03 01:54:25;;;;;;;5.67;1.10;;;14.40;99.90;;;;;;5093459;28;20198;-69
2022/09/03 01:57:19;;;;;;;4.80;1.90;;;14.30;99.90;;;;;;5093121;28;20678;-68
2022/09/03 01:59:59;;;;;;;7.20;1.60;;;14.20;99.90;;;;;;5093273;28;20565;-69
2022/09/03 02:02:29;;;;;;;10.00;1.90;;;14.20;99.90;;;;;;5093196;28;20174;-68
2022/09/03 02:05:21;;;;;;;7.77;2.10;;;14.20;99.90;;;;;;5092057;28;20212;-69
2022/09/03 02:08:00;;;;;;;7.83;1.90;;;14.20;99.90;;;;;;5093046;28;20177;-69
2022/09/03 02:10:42;;;;;;;6.50;2.00;;;14.20;99.90;;;;;;5093217;28;20182;-69
2022/09/03 02:13:19;;;;;;;8.13;1.80;;;14.30;99.90;;;;;;5093229;28;20174;-70
2022/09/03 02:15:51;;;;;;;7.07;1.67;;;14.70;99.90;;;;;;5093179;28;20606;-68
2022/09/03 02:18:59;;;;;;;8.97;1.47;;;15.10;99.90;;;;;;5092998;28;20203;-68
2022/09/03 02:21:33;;;;;;;5.73;1.40;;;15.10;99.90;;;;;;5092356;28;20195;-68
2022/09/03 02:24:04;;;;;;;10.47;1.73;;;15.30;99.90;;;;;;5093566;28;20199;-68
2022/09/03 02:26:32;;;;;;;5.73;1.27;;;15.60;99.90;;;;;;5092790;28;20179;-69
2022/09/03 02:29:02;;;;;;;6.37;1.53;;;15.90;99.90;;;;;;5092748;28;20179;-69
2022/09/03 02:31:30;;;;;;;5.17;1.30;;;15.70;99.90;;;;;;5093294;28;20299;-69
2022/09/03 02:33:58;;;;;;;8.30;1.87;;;15.20;99.90;;;;;;5092775;28;20722;-70
2022/09/03 02:36:33;;;;;;;3.67;1.40;;;14.90;99.90;;;;;;5091410;28;20286;-71
2022/09/03 02:39:01;;;;;;;6.47;1.60;;;14.50;99.90;;;;;;5093169;28;20227;-68
2022/09/03 02:41:30;;;;;;;5.03;1.43;;;14.10;99.90;;;;;;5096463;28;20202;-68
2022/09/03 02:44:36;;;;;;;6.53;1.63;;;14.00;99.90;;;;;;5096711;28;20507;-69
2022/09/03 02:47:06;;;;;;;6.73;1.80;;;13.90;99.90;;;;;;5091746;28;20190;-70
2022/09/03 02:49:35;;;;;;;8.20;2.10;;;14.00;99.90;;;;;;5096737;28;20258;-69
2022/09/03 02:52:11;;;;;;;9.10;1.80;;;14.10;99.90;;;;;;5096670;28;20174;-69
2022/09/03 02:54:44;;;;;;;7.10;1.73;;;14.20;99.90;;;;;;5096502;28;20182;-68
2022/09/03 02:57:18;;;;;;;10.00;2.20;;;14.20;99.90;;;;;;5096201;28;20231;-71
2022/09/03 02:59:52;;;;;;;6.47;1.87;;;14.30;99.90;;;;;;5094293;28;20267;-70
2022/09/03 03:02:20;;;;;;;7.53;2.20;;;14.50;99.90;;;;;;5096547;28;20171;-68
2022/09/03 03:04:48;;;;;;;13.07;2.10;;;14.70;99.90;;;;;;5096281;28;20176;-68
2022/09/03 03:07:16;;;;;;;8.83;2.03;;;14.90;99.90;;;;;;5096235;28;20675;-69
2022/09/03 03:09:44;;;;;;;10.03;2.10;;;14.70;99.90;;;;;;5095375;28;20199;-73
2022/09/03 03:12:12;;;;;;;12.23;1.97;;;14.70;99.90;;;;;;5096379;28;20181;-73
2022/09/03 03:14:40;;;;;;;9.03;2.10;;;14.70;99.90;;;;;;5096210;28;20175;-73
2022/09/03 03:17:08;;;;;;;9.80;2.13;;;14.90;99.90;;;;;;5096147;28;20234;-70
2022/09/03 03:19:36;;;;;;;9.27;2.23;;;14.90;99.90;;;;;;5095892;28;20300;-69
2022/09/03 03:22:07;;;;;;;9.77;2.30;;;14.80;99.90;;;;;;5095997;28;20184;-68
2022/09/03 03:24:35;;;;;;;9.33;2.00;;;14.80;99.90;;;;;;5094930;28;20181;-70
2022/09/03 03:27:06;;;;;;;11.53;2.17;;;14.60;99.90;;;;;;5095882;28;20174;-69
2022/09/03 03:29:34;;;;;;;10.17;2.13;;;14.60;99.90;;;;;;5095640;28;20175;-69
2022/09/03 03:32:03;;;;;;;9.97;2.40;;;14.50;99.90;;;;;;5095664;28;20224;-72
2022/09/03 03:34:31;;;;;;;9.13;1.63;;;14.40;99.90;;;;;;5094427;28;20195;-69
2022/09/03 03:37:00;;;;;;;9.77;2.40;;;14.50;99.90;;;;;;5095235;28;20183;-69
2022/09/03 03:39:28;;;;;;;9.17;2.30;;;14.50;99.90;;;;;;5096115;28;20198;-69
2022/09/03 03:41:56;;;;;;;12.73;2.17;;;14.50;99.90;;;;;;5095441;28;20253;-70
2022/09/03 03:44:28;;;;;;;6.00;1.60;;;14.50;99.90;;;;;;5095551;28;20273;-69
2022/09/03 03:46:56;;;;;;;6.33;1.73;;;14.40;99.90;;;;;;5095309;28;20171;-69
2022/09/03 03:49:24;;;;;;;10.43;2.03;;;14.50;99.90;;;;;;5095503;28;20171;-70
2022/09/03 03:51:56;;;;;;;9.80;2.47;;;14.50;99.90;;;;;;5093839;28;20188;-69
2022/09/03 03:54:23;;;;;;;11.13;2.30;;;14.50;99.90;;;;;;5095597;28;20171;-70
2022/09/03 03:56:51;;;;;;;9.63;2.27;;;14.50;99.90;;;;;;5094449;28;20280;-70
2022/09/03 03:59:19;;;;;;;9.60;2.27;;;14.50;99.90;;;;;;5095278;28;20218;-69
2022/09/03 04:01:49;;;;;;;11.63;2.13;;;14.40;99.90;;;;;;5095263;28;20250;-69
2022/09/03 04:04:25;;;;;;;8.53;2.00;;;14.30;99.90;;;;;;5094814;28;20281;-71
2022/09/03 04:06:52;;;;;;;8.43;2.03;;;14.30;99.90;;;;;;5095056;28;20177;-70
2022/09/03 04:09:21;;;;;;;10.83;2.03;;;14.40;99.90;;;;;;5095043;28;20527;-73
2022/09/03 04:11:49;;;;;;;13.77;2.03;;;14.50;99.90;;;;;;5096652;28;20227;-73
2022/09/03 04:14:18;;;;;;;11.67;2.30;;;14.50;99.90;;;;;;5096372;28;20248;-75
2022/09/03 04:16:46;;;;;;;8.87;2.30;;;14.50;99.90;;;;;;5094394;28;20229;-70
2022/09/03 04:19:14;;;;;;;11.87;2.20;;;14.60;99.90;;;;;;5094844;28;20205;-69
2022/09/03 04:21:44;;;;;;;10.57;2.30;;;14.50;99.90;;;;;;5094818;28;20189;-69
2022/09/03 04:24:12;;;;;;;16.33;2.40;;;14.60;99.90;;;;;;5094806;28;20175;-69
2022/09/03 04:26:40;;;;;;;9.67;1.97;;;14.70;99.90;;;;;;5094535;28;20536;-69
2022/09/03 04:29:09;;;;;;;12.33;2.00;;;14.80;99.90;;;;;;5094713;28;20185;-69
2022/09/03 04:31:38;;;;;;;13.23;2.03;;;14.80;99.90;;;;;;5094689;28;20706;-69
2022/09/03 04:34:09;;;;;;;11.30;2.53;;;14.80;99.90;;;;;;5094714;28;20176;-69
2022/09/03 04:36:37;;;;;;;10.70;2.00;;;14.80;99.90;;;;;;5094506;28;20181;-69
2022/09/03 04:39:09;;;;;;;7.57;2.13;;;14.90;99.90;;;;;;5094526;28;20219;-69
2022/09/03 04:41:38;;;;;;;8.57;2.17;;;15.00;99.90;;;;;;5094648;28;20232;-68
2022/09/03 04:44:06;;;;;;;9.33;2.53;;;15.10;99.90;;;;;;5094632;28;20180;-69
2022/09/03 04:46:34;;;;;;;9.57;2.20;;;15.20;99.90;;;;;;5094239;28;20203;-70
2022/09/03 04:49:08;;;;;;;11.53;2.33;;;15.30;99.90;;;;;;5093005;28;20195;-69
2022/09/03 04:51:37;;;;;;;12.30;2.37;;;15.40;99.90;;;;;;5094282;28;20175;-75
2022/09/03 04:54:06;;;;;;;7.73;2.20;;;15.30;99.90;;;;;;5094219;28;20271;-69
2022/09/03 04:56:35;;;;;;;13.80;2.33;;;15.40;99.90;;;;;;5093712;28;20178;-68
2022/09/03 04:59:06;;;;;;;14.77;2.30;;;15.30;99.90;;;;;;5093975;28;20545;-74
2022/09/03 05:01:37;;;;;;;13.10;2.13;;;15.30;99.90;;;;;;5093962;28;20175;-69
2022/09/03 05:04:06;;;;;;;9.53;2.30;;;15.20;99.90;;;;;;5093623;28;20220;-69
2022/09/03 05:06:36;;;;;;;13.83;2.33;;;15.30;99.90;;;;;;5093941;28;20217;-73
2022/09/03 05:09:12;;;;;;;12.50;2.20;;;15.30;99.90;;;;;;5076319;28;20218;-69
2022/09/03 05:11:40;;;;;;;9.63;2.10;;;15.10;99.90;;;;;;5094041;28;20687;-70
2022/09/03 05:14:11;;;;;;;11.73;2.30;;;14.80;99.90;;;;;;5093864;28;20637;-70
2022/09/03 05:16:40;;;;;;;12.97;2.27;;;14.50;99.90;;;;;;5093469;28;20179;-70
2022/09/03 05:19:12;;;;;;;9.97;2.83;;;14.10;99.90;;;;;;5093437;28;20683;-69
2022/09/03 05:21:40;;;;;;;9.00;2.13;;;13.90;99.90;;;;;;5092620;28;20184;-74
2022/09/03 05:24:08;;;;;;;12.80;2.37;;;13.90;99.90;;;;;;5093549;28;20235;-70
2022/09/03 05:26:38;;;;;;;8.97;2.07;;;13.90;99.90;;;;;;5093435;28;20227;-69
2022/09/03 05:29:07;;;;;;;10.13;1.97;;;14.00;99.90;;;;;;5092333;28;20182;-69
2022/09/03 05:31:42;;;;;;;12.90;2.73;;;14.00;99.90;;;;;;5093545;28;20170;-69
2022/09/03 05:34:12;;;;;;;11.47;2.20;;;14.00;99.90;;;;;;5093712;28;20355;-68
2022/09/03 05:36:41;;;;;;;10.57;2.50;;;14.00;99.90;;;;;;5093605;28;20647;-69
2022/09/03 05:39:09;;;;;;;12.07;1.57;;;14.00;99.90;;;;;;5093317;28;20218;-71
2022/09/03 05:41:37;;;;;;;8.50;2.13;;;14.10;99.90;;;;;;5093476;28;20643;-69
2022/09/03 05:44:06;;;;;;;15.20;4.03;;;14.20;99.90;;;;;;5092420;28;20191;-68
2022/09/03 05:46:37;;;;;;;14.37;2.17;;;14.20;99.90;;;;;;5093340;28;20267;-74
2022/09/03 05:49:08;;;;;;;8.23;1.70;;;14.30;99.90;;;;;;5093440;28;20220;-68
2022/09/03 05:51:40;;;;;;;8.07;2.10;;;14.20;99.90;;;;;;5093289;28;20190;-69
2022/09/03 05:54:13;;;;;;;8.20;2.90;;;14.20;99.90;;;;;;5093749;28;20179;-68
2022/09/03 05:56:44;;;;;;;7.33;2.60;;;14.20;99.90;;;;;;5092083;28;20250;-69
2022/09/03 05:59:13;;;;;;;11.93;2.33;;;14.20;99.90;;;;;;5092906;28;20281;-69
2022/09/03 06:01:46;;;;;;;7.47;2.50;;;14.30;99.90;;;;;;5093395;28;20221;-70
2022/09/03 06:04:16;;;;;;;12.23;2.63;;;14.10;99.90;;;;;;5092059;28;20187;-69
2022/09/03 06:06:47;;;;;;;8.47;2.00;;;14.10;99.90;;;;;;5093175;28;20599;-69
2022/09/03 06:09:17;;;;;;;10.40;2.40;;;14.10;99.90;;;;;;5093158;28;20174;-69
2022/09/03 06:11:47;;;;;;;10.40;2.60;;;14.00;99.90;;;;;;5093215;28;20178;-68
2022/09/03 06:14:16;;;;;;;6.40;1.93;;;14.00;99.90;;;;;;5094607;28;20628;-69
2022/09/03 06:16:48;;;;;;;9.70;2.60;;;14.20;99.90;;;;;;5097251;28;20181;-74
2022/09/03 06:19:16;;;;;;;14.80;2.33;;;14.10;99.90;;;;;;5096928;28;20214;-69
2022/09/03 06:21:46;;;;;;;10.53;2.30;;;14.10;99.90;;;;;;5097258;28;20174;-69
2022/09/03 06:24:22;;;;;;;15.37;2.60;;;14.10;99.90;;;;;;5097369;28;20179;-68
2022/09/03 06:26:50;;;;;;;7.50;2.23;;;14.00;99.90;;;;;;5096849;28;20165;-70
2022/09/03 06:29:20;;;;;;;11.73;2.60;;;14.00;99.90;;;;;;5097074;28;20167;-68
2022/09/03 06:31:51;;;;;;;14.23;2.53;;;13.90;99.90;;;;;;5096756;28;20186;-68
2022/09/03 06:34:21;;;;;;;12.43;2.40;;;13.90;99.90;;;;;;5095663;28;20193;-69
2022/09/03 06:36:53;;;;;;;12.37;2.27;;;13.80;99.90;;;;;;5096782;28;20186;-69
2022/09/03 06:39:21;;;;;;;11.10;2.33;;;13.60;99.90;;;;;;5096847;28;20304;-75
2022/09/03 06:41:53;;;;;;;10.53;2.80;;;13.40;99.90;;;;;;5096185;28;20670;-69
2022/09/03 06:44:21;;;;;;;9.40;2.03;;;13.30;99.90;;;;;;5096574;28;20216;-69
2022/09/03 06:46:52;;;;;;;9.17;2.20;;;13.20;99.90;;;;;;5096608;28;20205;-69
2022/09/03 06:49:20;;;;;;;8.77;1.87;;;13.10;99.90;;;;;;5095297;28;20192;-69
2022/09/03 06:51:48;;;;;;;8.53;2.30;;;13.00;99.90;;;;;;5096600;28;20587;-69
2022/09/03 06:54:16;;;;;;;8.97;2.20;;;13.00;99.90;;;;;;5096324;28;20564;-69
2022/09/03 06:56:44;;;;;;;12.43;1.90;;;13.00;99.90;;;;;;5096139;28;20225;-69
2022/09/03 06:59:15;;;;;;;7.23;2.00;;;13.00;99.90;;;;;;5096400;28;20681;-70
2022/09/03 07:01:44;;;;;;;5.67;1.83;;;13.00;99.90;;;;;;5094261;28;20182;-69
2022/09/03 07:04:15;;;;;;;7.17;1.80;;;13.00;99.90;;;;;;5096408;28;20201;-69
2022/09/03 07:06:44;;;;;;;7.47;1.97;;;13.00;99.90;;;;;;5096260;28;20169;-71
2022/09/03 07:09:14;;;;;;;5.93;1.67;;;13.10;99.90;;;;;;5094445;28;20236;-69
2022/09/03 07:11:46;;;;;;;9.87;1.80;;;13.00;99.90;;;;;;5096352;28;20665;-69
2022/09/03 07:14:17;;;;;;;10.43;2.17;;;13.00;99.90;;;;;;5096933;28;20193;-70
2022/09/03 07:16:46;;;;;;;6.40;1.90;;;13.00;99.90;;;;;;5095024;28;20186;-71
2022/09/03 07:19:14;;;;;;;15.03;2.43;;;13.00;99.90;;;;;;5096031;28;20249;-68
2022/09/03 07:21:44;;;;;;;10.23;2.30;;;13.00;99.90;;;;;;5096089;28;20261;-68
2022/09/03 07:24:13;;;;;;;8.67;1.93;;;13.00;99.90;;;;;;5095039;28;20186;-69
2022/09/03 07:26:51;;;;;;;9.20;1.93;;;13.00;99.90;;;;;;5095092;28;20263;-69
2022/09/03 07:29:20;;;;;;;7.73;2.00;;;13.00;99.90;;;;;;5096006;28;20541;-69
2022/09/03 07:31:51;;;;;;;10.40;2.00;;;13.00;99.90;;;;;;5095940;28;20185;-70
2022/09/03 07:34:19;;;;;;;8.07;1.77;;;13.00;99.90;;;;;;5094723;28;20240;-69
2022/09/03 07:36:49;;;;;;;8.20;1.80;;;13.00;99.90;;;;;;5095941;28;20212;-70
2022/09/03 07:39:18;;;;;;;11.80;2.80;;;12.90;99.90;;;;;;5095634;28;20223;-70
2022/09/03 07:41:49;;;;;;;5.03;1.80;;;12.90;99.90;;;;;;5095886;28;20544;-70
2022/09/03 07:44:21;;;;;;;13.13;2.50;;;12.80;99.90;;;;;;5095783;28;20271;-71
2022/09/03 07:46:51;;;;;;;9.70;1.97;;;12.70;99.90;;;;;;5095600;28;20176;-69
2022/09/03 07:49:20;;;;;;;11.17;2.90;;;12.70;99.90;;;;;;5095439;28;20184;-69
2022/09/03 07:51:52;;;;;;;8.70;2.13;;;12.60;99.90;;;;;;5095708;28;20235;-70
2022/09/03 07:54:22;;;;;;;8.27;1.97;;;12.50;99.90;;;;;;5094896;28;20183;-69
2022/09/03 07:56:54;;;;;;;12.63;2.70;;;12.50;99.90;;;;;;5094691;28;20227;-68
2022/09/03 07:59:25;;;;;;;10.17;2.17;;;12.50;99.90;;;;;;5095638;28;20249;-72
2022/09/03 08:01:53;;;;;;;11.13;2.50;;;12.40;99.90;;;;;;5095568;28;20240;-68
2022/09/03 08:04:24;;;;;;;13.10;2.30;;;12.40;99.90;;;;;;5095568;28;20184;-70
2022/09/03 08:06:59;;;;;;;9.60;2.07;;;12.30;99.90;;;;;;5095722;28;20637;-69
2022/09/03 08:09:26;;;;;;;7.63;2.30;;;12.30;99.90;;;;;;5095202;28;20590;-69
2022/09/03 08:11:54;;;;;;;8.03;2.40;;;12.20;99.90;;;;;;5095217;28;20305;-69
2022/09/03 08:14:22;;;;;;;9.00;2.23;;;12.20;99.90;;;;;;5095278;28;20196;-71
2022/09/03 08:16:50;;;;;;;10.57;2.40;;;12.10;99.90;;;;;;5095081;28;20545;-68
2022/09/03 08:19:21;;;;;;;9.43;2.93;;;12.10;99.90;;;;;;5095151;28;20588;-72
2022/09/03 08:21:49;;;;;;;14.40;3.53;;;12.10;99.90;;;;;;5094334;28;20178;-70
2022/09/03 08:24:20;;;;;;;8.80;2.27;;;12.00;99.90;;;;;;5095083;28;20543;-71
2022/09/03 08:26:48;;;;;;;6.37;1.90;;;12.00;99.90;;;;;;5094900;28;20180;-69
2022/09/03 08:29:20;;;;;;;8.97;1.97;;;12.00;99.90;;;;;;5094946;28;20172;-71
2022/09/03 08:31:48;;;;;;;9.30;2.03;;;12.00;99.90;;;;;;5094786;28;20171;-70
2022/09/03 08:34:16;;;;;;;5.67;2.00;;;12.00;99.90;;;;;;5094725;28;20179;-69
2022/09/03 08:36:45;;;;;;;7.90;2.03;;;11.90;99.90;;;;;;5094324;28;20185;-69
2022/09/03 08:39:13;;;;;;;7.93;1.93;;;11.90;99.90;;;;;;5094025;28;20219;-69
2022/09/03 08:42:02;;;;;;;6.23;2.07;;;11.90;99.90;;;;;;5094989;28;20599;-69
2022/09/03 08:44:55;;;;;;;11.03;1.93;;;11.90;99.90;;;;;;5094832;28;20282;-70
2022/09/03 08:47:35;;;;;;;10.07;2.00;;;11.90;99.90;;;;;;5094463;28;20197;-70
2022/09/03 08:50:30;;;;;;;7.30;2.03;;;11.90;99.90;;;;;;5094515;28;20177;-70
2022/09/03 08:53:06;;;;;;;7.40;2.07;;;11.90;99.90;;;;;;5092268;28;20199;-70
2022/09/03 08:55:43;;;;;;;10.63;2.53;;;11.90;99.90;;;;;;5094620;28;20219;-69
2022/09/03 08:58:14;;;;;;;8.67;2.67;;;11.90;99.90;;;;;;5093165;28;20253;-70
2022/09/03 09:00:42;;;;;;;8.53;2.33;;;12.00;99.90;;;;;;5094094;28;20187;-69
2022/09/03 09:03:36;;;;;;;7.10;2.17;;;11.90;99.90;;;;;;5094256;28;20306;-70
2022/09/03 09:06:13;;;;;;;6.13;2.30;;;11.90;99.90;;;;;;5094509;28;20169;-69
2022/09/03 09:08:58;;;;;;;12.97;3.33;;;11.90;99.90;;;;;;5094809;28;20461;-69
2022/09/03 09:11:44;;;;;;;8.17;1.73;;;11.90;99.90;;;;;;5094864;28;20202;-69
2022/09/03 09:14:49;;;;;;;7.53;2.20;;;11.90;99.90;;;;;;5094459;28;20171;-69
2022/09/03 09:17:30;;;;;;;6.10;2.07;;;11.80;99.90;;;;;;5080841;28;20186;-69
2022/09/03 09:20:06;;;;;;;9.67;2.17;;;11.80;99.90;;;;;;5093908;28;20181;-69
2022/09/03 09:22:45;;;;;;;5.27;2.30;;;11.80;99.90;;;;;;5094001;28;20643;-70
2022/09/03 09:25:21;;;;;;;7.20;2.17;;;11.70;99.90;;;;;;5093982;28;20261;-69
2022/09/03 09:27:58;;;;;;;7.97;2.70;;;11.70;99.90;;;;;;5092571;28;20655;-70
2022/09/03 09:30:28;;;;;;;8.03;2.53;;;11.70;99.90;;;;;;5094186;28;20633;-69
2022/09/03 09:32:55;;;;;;;6.73;2.00;;;11.60;99.90;;;;;;5093799;28;20183;-69
2022/09/03 09:35:24;;;;;;;9.60;2.80;;;11.60;99.90;;;;;;5093936;28;20171;-69
2022/09/03 09:37:59;;;;;;;8.87;1.90;;;11.60;99.90;;;;;;5093748;28;20204;-69
2022/09/03 09:40:35;;;;;;;12.20;2.93;;;11.60;99.90;;;;;;5093489;28;20207;-69
2022/09/03 09:43:22;;;;;;;7.57;1.90;;;11.50;99.90;;;;;;5093620;28;20602;-72
2022/09/03 09:45:52;;;;;;;9.73;2.00;;;11.50;99.90;;;;;;5093698;28;20179;-69
2022/09/03 09:48:38;;;;;;;13.67;2.47;;;11.50;99.90;;;;;;5093210;28;20610;-69
2022/09/03 09:51:23;;;;;;;8.87;2.23;;;11.50;99.90;;;;;;5093525;28;20229;-68
2022/09/03 09:54:18;;;;;;;7.57;1.80;;;11.50;99.90;;;;;;5093518;28;20228;-71
2022/09/03 09:56:57;;;;;;;5.20;1.53;;;11.50;99.90;;;;;;5093171;28;20711;-68
2022/09/03 09:59:31;;;;;;;5.43;1.80;;;11.50;99.90;;;;;;5093161;28;20257;-74
2022/09/03 10:02:13;;;;;;;4.17;1.60;;;11.60;99.90;;;;;;5093585;28;20265;-68
2022/09/03 10:04:45;;;;;;;6.33;1.30;;;11.60;99.90;;;;;;5093417;28;20211;-68
2022/09/03 10:07:23;;;;;;;5.27;1.60;;;11.70;99.90;;;;;;5093281;28;20167;-68
2022/09/03 10:10:13;;;;;;;5.03;2.13;;;11.70;99.90;;;;;;5093197;28;20171;-69
2022/09/03 10:12:58;;;;;;;7.97;2.17;;;11.70;99.90;;;;;;5093865;28;20179;-68
2022/09/03 10:15:32;;;;;;;5.83;1.80;;;11.70;99.90;;;;;;5093581;28;20262;-69
2022/09/03 10:18:08;;;;;;;6.73;2.33;;;11.70;99.90;;;;;;5093263;28;20668;-70
2022/09/03 10:21:15;;;;;;;5.80;1.80;;;11.70;99.90;;;;;;5093183;28;20172;-69
2022/09/03 10:24:15;;;;;;;8.13;1.97;;;11.80;99.90;;;;;;5093334;28;20212;-70
2022/09/03 10:26:44;;;;;;;6.50;1.77;;;11.80;99.90;;;;;;5074243;28;20551;-68
2022/09/03 10:29:28;;;;;;;9.57;2.40;;;11.70;99.90;;;;;;5093066;28;20214;-69
2022/09/03 10:32:05;;;;;;;10.50;2.33;;;11.70;99.90;;;;;;5093558;28;20647;-70
2022/09/03 10:34:48;;;;;;;7.97;1.80;;;11.60;99.90;;;;;;5093393;28;20241;-68
2022/09/03 10:37:37;;;;;;;5.43;2.17;;;11.60;99.90;;;;;;5094303;28;20175;-69
2022/09/03 10:40:31;;;;;;;8.90;1.80;;;11.50;99.90;;;;;;5093611;28;20287;-70
2022/09/03 10:43:15;;;;;;;6.93;2.87;;;11.50;99.90;;;;;;5093576;28;20186;-68
2022/09/03 10:45:43;;;;;;;5.67;2.00;;;11.50;99.90;;;;;;5093644;28;20226;-69
2022/09/03 10:48:45;;;;;;;7.63;1.57;;;11.60;99.90;;;;;;5092990;28;20758;-69
2022/09/03 10:51:23;;;;;;;8.90;1.93;;;11.60;99.90;;;;;;5081320;28;20341;-69
2022/09/03 10:54:32;;;;;;;10.67;1.80;;;11.70;99.90;;;;;;5092881;28;20606;-69
2022/09/03 10:57:29;;;;;;;8.67;2.37;;;11.70;99.90;;;;;;5092820;28;20223;-69
2022/09/03 11:00:11;;;;;;;10.87;1.67;;;11.60;99.90;;;;;;5092867;28;20189;-70
2022/09/03 11:03:02;;;;;;;6.90;1.70;;;11.60;99.90;;;;;;5096792;28;20266;-68
2022/09/03 11:06:00;;;;;;;6.10;1.90;;;11.60;99.90;;;;;;5096385;28;20186;-68
2022/09/03 11:08:33;;;;;;;7.57;2.00;;;11.60;99.90;;;;;;5095136;28;20188;-69
2022/09/03 11:11:25;;;;;;;7.33;2.20;;;11.70;99.90;;;;;;5096677;28;20707;-69
2022/09/03 11:14:14;;;;;;;8.23;1.80;;;11.60;99.90;;;;;;5096474;28;20172;-70
2022/09/03 11:16:55;;;;;;;9.23;2.13;;;11.60;99.90;;;;;;5096271;28;20203;-69
2022/09/03 11:19:37;;;;;;;8.63;1.83;;;11.50;99.90;;;;;;5096172;28;20519;-69
2022/09/03 11:22:06;;;;;;;6.50;1.57;;;11.50;99.90;;;;;;5096356;28;20259;-68
2022/09/03 11:24:39;;;;;;;6.23;1.30;;;11.50;99.90;;;;;;5096246;28;20168;-70
2022/09/03 11:27:18;;;;;;;6.70;2.07;;;11.40;99.90;;;;;;5094723;28;20186;-69
2022/09/03 11:30:07;;;;;;;8.93;2.17;;;11.30;99.90;;;;;;5096474;28;20180;-69
2022/09/03 11:32:42;;;;;;;3.93;1.77;;;11.30;99.90;;;;;;5096425;28;20186;-72
2022/09/03 11:35:27;;;;;;;8.87;1.93;;;11.30;99.90;;;;;;5095962;28;20178;-70
2022/09/03 11:38:04;;;;;;;7.83;2.53;;;11.20;99.90;;;;;;5095897;28;20218;-69
2022/09/03 11:40:43;;;;;;;4.77;1.87;;;11.20;99.90;;;;;;5095961;28;20170;-69
2022/09/03 11:43:28;;;;;;;9.43;1.97;;;11.20;99.90;;;;;;5096081;28;20270;-69
2022/09/03 11:46:10;;;;;;;6.67;2.13;;;11.20;99.90;;;;;;5096245;28;20194;-69
2022/09/03 11:48:44;;;;;;;3.77;1.47;;;11.20;99.90;;;;;;5095804;28;20253;-70
2022/09/03 11:51:29;;;;;;;6.20;1.47;;;11.20;99.90;;;;;;5096022;28;20545;-70
2022/09/03 11:54:02;;;;;;;6.47;1.77;;;11.20;99.90;;;;;;5096448;28;20566;-69
2022/09/03 11:56:31;;;;;;;4.57;1.60;;;11.30;99.90;;;;;;5095632;28;20181;-70
2022/09/03 11:59:23;;;;;;;3.23;1.37;;;11.20;99.90;;;;;;5095544;28;20269;-68
2022/09/03 12:02:05;;;;;;;5.93;1.77;;;11.20;99.90;;;;;;5095495;28;20248;-69
2022/09/03 12:04:44;;;;;;;5.40;1.90;;;11.20;99.90;;;;;;5095601;28;20176;-74
2022/09/03 12:07:41;;;;;;;6.53;1.60;;;11.10;99.90;;;;;;5090647;28;20188;-70
2022/09/03 12:10:25;;;;;;;3.43;1.30;;;11.10;99.90;;;;;;5078289;28;20583;-69
2022/09/03 12:13:17;;;;;;;3.97;1.50;;;11.00;99.90;;;;;;5095072;28;20655;-71
2022/09/03 12:16:03;;;;;;;6.93;1.77;;;11.00;99.90;;;;;;5095957;28;20172;-69
2022/09/03 12:18:33;;;;;;;5.97;1.47;;;11.00;99.90;;;;;;5083154;28;20219;-69
2022/09/03 12:21:03;;;;;;;7.93;2.03;;;11.00;99.90;;;;;;5085052;28;20224;-70
2022/09/03 12:23:35;;;;;;;8.03;1.50;;;11.00;99.90;;;;;;5095097;28;20225;-70
2022/09/03 12:26:15;;;;;;;4.83;1.37;;;11.00;99.90;;;;;;5095402;28;20656;-70
2022/09/03 12:28:47;;;;;;;3.00;1.63;;;11.00;99.90;;;;;;5091288;28;20252;-69
2022/09/03 12:31:24;;;;;;;5.00;1.30;;;11.00;99.90;;;;;;5075818;28;20214;-70
2022/09/03 12:33:56;;;;;;;4.57;1.50;;;11.00;99.90;;;;;;5074793;28;20190;-71
2022/09/03 12:36:24;;;;;;;8.10;1.47;;;11.00;99.90;;;;;;5074582;28;20183;-69
2022/09/03 12:38:52;;;;;;;3.33;1.03;;;11.00;99.90;;;;;;5074423;28;20226;-69
2022/09/03 12:41:29;;;;;;;3.87;1.10;;;11.10;99.90;;;;;;5074449;28;20543;-69
2022/09/03 12:43:59;;;;;;;3.63;1.07;;;11.10;99.90;;;;;;5074604;28;20183;-70
2022/09/03 12:46:29;;;;;;;5.93;1.60;;;11.10;99.90;;;;;;5077938;28;20175;-69
2022/09/03 12:49:06;;;;;;;6.83;1.13;;;11.20;99.90;;;;;;5073176;28;20593;-70
2022/09/03 12:51:40;;;;;;;3.33;1.20;;;11.20;99.90;;;;;;5073958;28;20226;-69
2022/09/03 12:54:14;;;;;;;11.50;1.67;;;11.20;99.90;;;;;;5074338;28;20177;-70
2022/09/03 12:56:46;;;;;;;2.43;1.17;;;11.20;99.90;;;;;;5073959;28;20586;-69
2022/09/03 12:59:18;;;;;;;6.63;1.40;;;11.10;99.90;;;;;;5074034;28;20219;-71
2022/09/03 13:02:02;;;;;;;7.87;1.40;;;11.10;99.90;;;;;;5073482;28;20190;-68
2022/09/03 13:04:35;;;;;;;4.27;1.37;;;11.10;99.90;;;;;;5073505;28;20550;-70
2022/09/03 13:07:22;;;;;;;5.60;1.60;;;11.10;99.90;;;;;;5073835;28;20175;-70
2022/09/03 13:09:50;;;;;;;5.83;1.60;;;11.10;99.90;;;;;;5073858;28;20173;-69
2022/09/03 13:12:31;;;;;;;4.30;1.40;;;11.10;99.90;;;;;;5073889;28;20539;-70
2022/09/03 13:15:07;;;;;;;3.50;1.40;;;11.10;99.90;;;;;;5073292;28;20183;-70
2022/09/03 13:18:08;;;;;;;5.03;1.53;;;11.10;99.90;;;;;;5073899;28;20171;-71
2022/09/03 13:20:54;;;;;;;5.70;1.80;;;11.10;99.90;;;;;;5074242;28;20172;-71
2022/09/03 13:23:56;;;;;;;2.10;1.30;;;11.00;99.90;;;;;;5072718;28;20267;-69
2022/09/03 13:26:39;;;;;;;6.57;1.37;;;11.00;99.90;;;;;;5062583;28;20199;-69
2022/09/03 13:29:31;;;;;;;5.80;2.07;;;11.00;99.90;;;;;;5073473;28;20169;-69
2022/09/03 13:32:24;;;;;;;4.83;1.57;;;11.00;99.90;;;;;;5074158;28;20183;-71